Time;durP1;ratioP1;P1;durP2;ratioP2;P2;SDS_P1;SDS_P2;PMS_P1;PMS_P2;Temp;Humidity;BMP_temperature;BMP_pressure;BME280_temperature;BME280_humidity;BME280_pressure;Samples;Min_cycle;Max_cycle;Signal;HPM_P1;HPM_P2
2023/09/21 00:01:38;;;;;;;3.25;1.12;;;18.40;99.90;;;;;;7302045;32;20169;-55
2023/09/21 00:05:40;;;;;;;2.00;1.12;;;18.40;99.90;;;;;;7303000;32;20104;-56
2023/09/21 00:09:42;;;;;;;5.25;1.70;;;18.40;99.90;;;;;;7304609;32;20123;-57
2023/09/21 00:13:43;;;;;;;2.50;1.02;;;18.40;99.90;;;;;;7303635;32;20112;-56
2023/09/21 00:17:46;;;;;;;2.90;1.40;;;18.40;99.90;;;;;;7302870;32;20223;-57
2023/09/21 00:21:48;;;;;;;3.90;1.33;;;18.50;99.90;;;;;;7303461;32;20228;-57
2023/09/21 00:25:57;;;;;;;3.55;1.27;;;18.50;99.90;;;;;;7303171;32;20222;-57
2023/09/21 00:30:04;;;;;;;2.58;1.40;;;18.50;99.90;;;;;;7302123;32;20107;-56
2023/09/21 00:34:06;;;;;;;3.85;1.45;;;18.50;99.90;;;;;;7307767;32;20141;-57
2023/09/21 00:38:09;;;;;;;2.45;1.35;;;18.40;99.90;;;;;;7303679;32;20616;-56
2023/09/21 00:42:11;;;;;;;3.05;1.30;;;18.40;99.90;;;;;;7303631;32;20138;-56
2023/09/21 00:46:13;;;;;;;3.62;1.37;;;18.30;99.90;;;;;;7300195;32;20119;-56
2023/09/21 00:50:21;;;;;;;2.65;1.20;;;18.30;99.90;;;;;;7307390;32;20108;-55
2023/09/21 00:54:23;;;;;;;2.50;1.25;;;18.40;99.90;;;;;;7305832;32;20211;-56
2023/09/21 00:58:26;;;;;;;2.83;1.37;;;18.40;99.90;;;;;;7302689;32;20526;-58
2023/09/21 01:02:28;;;;;;;3.20;1.30;;;18.40;99.90;;;;;;7308653;32;20331;-56
2023/09/21 01:06:30;;;;;;;2.20;1.02;;;18.30;99.90;;;;;;7302930;32;20134;-55
2023/09/21 01:10:33;;;;;;;3.85;1.33;;;18.40;99.90;;;;;;7296516;32;20755;-57
2023/09/21 01:14:35;;;;;;;2.80;1.40;;;18.40;99.90;;;;;;7304686;32;20138;-56
2023/09/21 01:18:40;;;;;;;3.60;1.37;;;18.30;99.90;;;;;;7305472;32;20490;-56
2023/09/21 01:22:48;;;;;;;3.90;1.30;;;18.20;99.90;;;;;;7304748;32;20130;-57
2023/09/21 01:26:50;;;;;;;7.07;1.20;;;18.20;99.90;;;;;;7304014;32;20692;-56
2023/09/21 01:30:52;;;;;;;3.70;1.33;;;18.20;99.90;;;;;;7304267;32;20483;-56
2023/09/21 01:34:54;;;;;;;3.33;1.90;;;18.20;99.90;;;;;;7304298;32;20124;-58
2023/09/21 01:38:56;;;;;;;3.33;1.20;;;18.10;99.90;;;;;;7306758;32;20260;-56
2023/09/21 01:42:58;;;;;;;1.85;1.23;;;18.20;99.90;;;;;;7299955;32;20580;-55
2023/09/21 01:47:00;;;;;;;2.92;1.27;;;18.30;99.90;;;;;;7300623;32;20180;-57
2023/09/21 01:51:02;;;;;;;3.78;1.40;;;18.20;99.90;;;;;;7299868;32;20162;-57
2023/09/21 01:55:07;;;;;;;2.90;1.05;;;18.10;99.90;;;;;;7302123;32;20247;-57
2023/09/21 01:59:08;;;;;;;2.60;1.02;;;18.00;99.90;;;;;;7307516;32;20400;-56
2023/09/21 02:03:12;;;;;;;2.12;1.30;;;18.00;99.90;;;;;;7301661;32;20112;-56
2023/09/21 02:07:15;;;;;;;5.28;1.55;;;18.00;99.90;;;;;;7302436;32;20438;-56
2023/09/21 02:11:17;;;;;;;2.42;1.27;;;18.00;99.90;;;;;;7305027;32;20108;-57
2023/09/21 02:15:19;;;;;;;2.17;1.10;;;18.00;99.90;;;;;;7306320;32;20331;-55
2023/09/21 02:19:20;;;;;;;2.90;1.33;;;17.90;99.90;;;;;;7315626;32;20568;-56
2023/09/21 02:23:23;;;;;;;4.00;1.30;;;18.00;99.90;;;;;;7302592;32;20214;-56
2023/09/21 02:27:25;;;;;;;2.87;1.08;;;17.90;99.90;;;;;;7309226;32;20135;-56
2023/09/21 02:31:27;;;;;;;3.75;1.25;;;17.90;99.90;;;;;;7305993;32;20245;-56
2023/09/21 02:35:33;;;;;;;1.87;1.12;;;17.90;99.90;;;;;;7303954;32;20667;-56
2023/09/21 02:39:35;;;;;;;2.75;1.37;;;18.00;99.90;;;;;;7300854;32;20108;-55
2023/09/21 02:43:39;;;;;;;1.90;0.95;;;18.00;99.90;;;;;;7307774;32;20171;-57
2023/09/21 02:47:42;;;;;;;2.35;1.12;;;17.90;99.90;;;;;;7300725;32;20179;-57
2023/09/21 02:51:44;;;;;;;5.45;1.30;;;17.90;99.90;;;;;;7300356;32;20131;-56
2023/09/21 02:55:49;;;;;;;3.22;1.52;;;17.80;99.90;;;;;;7305300;32;20162;-55
2023/09/21 02:59:51;;;;;;;3.22;1.42;;;17.80;99.90;;;;;;7300016;32;20154;-56
2023/09/21 03:03:53;;;;;;;4.10;1.08;;;17.80;99.90;;;;;;7299170;32;20115;-56
2023/09/21 03:07:55;;;;;;;3.45;1.27;;;17.80;99.90;;;;;;7303196;32;20116;-56
2023/09/21 03:11:59;;;;;;;2.50;1.23;;;17.80;99.90;;;;;;7312437;32;20179;-57
2023/09/21 03:16:01;;;;;;;2.70;1.40;;;17.70;99.90;;;;;;7305773;32;20128;-56
2023/09/21 03:20:12;;;;;;;2.85;1.50;;;17.80;99.90;;;;;;7306369;32;20222;-56
2023/09/21 03:24:14;;;;;;;2.08;1.27;;;17.80;99.90;;;;;;7288738;32;20290;-57
2023/09/21 03:28:18;;;;;;;2.72;1.25;;;17.80;99.90;;;;;;7309236;32;20126;-56
2023/09/21 03:32:20;;;;;;;2.62;1.30;;;17.80;99.90;;;;;;7301508;32;20100;-55
2023/09/21 03:36:22;;;;;;;2.10;1.20;;;17.80;99.90;;;;;;7305470;32;20122;-56
2023/09/21 03:40:30;;;;;;;2.92;1.40;;;17.80;99.90;;;;;;7302450;32;20184;-57
2023/09/21 03:44:31;;;;;;;3.62;1.40;;;17.80;99.90;;;;;;7309338;32;20518;-57
2023/09/21 03:48:35;;;;;;;3.58;1.50;;;17.80;99.90;;;;;;7306211;32;20485;-57
2023/09/21 03:52:39;;;;;;;2.15;1.30;;;17.80;99.90;;;;;;7305718;32;20237;-56
2023/09/21 03:56:41;;;;;;;3.37;1.15;;;17.90;99.90;;;;;;7291517;32;20162;-56
2023/09/21 04:00:46;;;;;;;2.70;1.40;;;17.80;99.90;;;;;;7309485;32;20703;-57
2023/09/21 04:04:51;;;;;;;2.83;1.40;;;17.90;99.90;;;;;;7302143;32;20532;-56
2023/09/21 04:08:53;;;;;;;2.72;1.23;;;17.90;99.90;;;;;;7306252;32;20218;-56
2023/09/21 04:12:55;;;;;;;2.47;1.23;;;17.90;99.90;;;;;;7306378;32;20600;-57
2023/09/21 04:16:57;;;;;;;3.05;1.20;;;17.90;99.90;;;;;;7305011;32;20169;-56
2023/09/21 04:20:59;;;;;;;5.75;1.45;;;17.90;99.90;;;;;;7289787;32;20319;-56
2023/09/21 04:25:19;;;;;;;3.80;1.42;;;18.00;99.90;;;;;;7303309;32;20232;-56
2023/09/21 04:29:20;;;;;;;4.50;1.50;;;18.10;99.90;;;;;;7302770;32;20285;-56
2023/09/21 04:33:23;;;;;;;2.12;1.25;;;18.20;99.90;;;;;;7302135;32;20111;-56
2023/09/21 04:37:24;;;;;;;2.12;1.40;;;18.20;99.90;;;;;;7301199;32;20427;-56
2023/09/21 04:41:30;;;;;;;4.32;1.30;;;18.30;99.90;;;;;;7301705;32;20218;-55
2023/09/21 04:45:33;;;;;;;4.35;1.30;;;18.40;99.90;;;;;;7300101;32;20108;-56
2023/09/21 04:49:37;;;;;;;3.35;1.23;;;18.40;99.90;;;;;;7304980;32;20108;-56
2023/09/21 04:53:39;;;;;;;3.05;1.50;;;18.30;99.90;;;;;;7298976;32;20257;-56
2023/09/21 04:57:41;;;;;;;2.87;1.40;;;18.40;99.90;;;;;;7296276;32;20670;-56
2023/09/21 05:01:43;;;;;;;2.17;1.30;;;18.40;99.90;;;;;;7302657;32;20116;-56
2023/09/21 05:05:45;;;;;;;2.17;1.27;;;18.30;99.90;;;;;;7301943;32;20198;-57
2023/09/21 05:09:47;;;;;;;3.03;1.73;;;18.20;99.90;;;;;;7300658;32;20504;-58
2023/09/21 05:13:50;;;;;;;2.67;1.27;;;18.00;99.90;;;;;;7299764;32;20283;-56
2023/09/21 05:17:52;;;;;;;2.95;1.48;;;18.00;99.90;;;;;;7307544;32;20115;-58
2023/09/21 05:21:56;;;;;;;3.90;1.80;;;18.00;99.90;;;;;;7302931;32;20475;-57
2023/09/21 05:25:58;;;;;;;4.55;1.20;;;17.80;99.90;;;;;;7302551;32;20709;-57
2023/09/21 05:30:01;;;;;;;3.12;1.40;;;17.90;99.90;;;;;;7291487;32;20659;-57
2023/09/21 05:34:03;;;;;;;3.10;1.40;;;17.90;99.90;;;;;;7294119;32;20219;-57
2023/09/21 05:38:06;;;;;;;2.85;1.30;;;17.90;99.90;;;;;;7298195;32;20221;-57
2023/09/21 05:42:09;;;;;;;5.53;1.45;;;17.90;99.90;;;;;;7303867;32;20116;-56
2023/09/21 05:46:11;;;;;;;5.35;3.30;;;17.80;99.90;;;;;;7303387;32;20120;-58
2023/09/21 05:50:13;;;;;;;2.47;1.40;;;17.80;99.90;;;;;;7309062;32;20553;-57
2023/09/21 05:54:16;;;;;;;2.60;1.62;;;17.80;99.90;;;;;;7311282;32;20243;-56
2023/09/21 05:58:18;;;;;;;6.12;1.70;;;17.80;99.90;;;;;;7301712;32;20181;-57
2023/09/21 06:02:19;;;;;;;2.65;1.40;;;17.80;99.90;;;;;;7303169;32;20630;-56
2023/09/21 06:06:21;;;;;;;3.22;1.37;;;17.80;99.90;;;;;;7309903;32;20127;-56
2023/09/21 06:10:23;;;;;;;3.12;1.50;;;17.80;99.90;;;;;;7303085;32;20124;-58
2023/09/21 06:14:25;;;;;;;4.28;1.30;;;17.80;99.90;;;;;;7302898;32;20179;-57
2023/09/21 06:18:27;;;;;;;3.60;1.62;;;17.80;99.90;;;;;;7310680;32;20191;-57
2023/09/21 06:22:31;;;;;;;4.18;1.58;;;17.90;99.90;;;;;;7301755;32;20180;-57
2023/09/21 06:26:33;;;;;;;4.43;1.42;;;17.90;99.90;;;;;;7309850;32;20203;-56
2023/09/21 06:30:35;;;;;;;2.92;1.60;;;18.00;99.90;;;;;;7305219;32;20209;-57
2023/09/21 06:34:37;;;;;;;3.85;1.60;;;18.10;99.90;;;;;;7303645;32;20188;-57
2023/09/21 06:38:40;;;;;;;4.10;1.50;;;18.10;99.90;;;;;;7305055;32;20132;-57
2023/09/21 06:42:42;;;;;;;6.25;1.98;;;18.30;99.90;;;;;;7308617;32;20199;-57
2023/09/21 06:46:44;;;;;;;4.28;1.60;;;18.40;99.90;;;;;;7305228;32;20119;-58
2023/09/21 06:50:47;;;;;;;3.17;1.20;;;18.50;99.90;;;;;;7304978;32;20166;-57
2023/09/21 06:54:49;;;;;;;2.37;1.40;;;18.40;99.90;;;;;;7306053;32;20108;-57
2023/09/21 06:58:51;;;;;;;3.67;1.50;;;18.50;99.90;;;;;;7305020;32;20147;-57
2023/09/21 07:02:53;;;;;;;5.22;1.60;;;18.50;99.90;;;;;;7310351;32;20116;-58
2023/09/21 07:06:55;;;;;;;3.17;1.55;;;18.60;99.90;;;;;;7310967;32;20207;-57
2023/09/21 07:10:57;;;;;;;4.72;1.60;;;18.60;99.90;;;;;;7302690;32;20499;-56
2023/09/21 07:14:59;;;;;;;2.45;1.33;;;18.60;99.90;;;;;;7304913;32;20802;-56
2023/09/21 07:19:00;;;;;;;2.53;1.40;;;18.70;99.90;;;;;;7301716;32;20194;-56
2023/09/21 07:23:03;;;;;;;3.42;1.48;;;18.90;99.90;;;;;;7307209;32;20104;-57
2023/09/21 07:27:06;;;;;;;2.92;1.35;;;19.00;99.90;;;;;;7304923;32;20119;-58
2023/09/21 07:31:09;;;;;;;4.10;1.70;;;19.20;99.90;;;;;;7302747;32;20135;-57
2023/09/21 07:35:11;;;;;;;3.30;1.40;;;19.30;99.90;;;;;;7302603;32;20490;-58
2023/09/21 07:39:14;;;;;;;9.27;1.60;;;19.30;99.90;;;;;;7303265;32;20112;-57
2023/09/21 07:43:16;;;;;;;2.25;1.20;;;19.30;99.90;;;;;;7300389;32;20100;-57
2023/09/21 07:47:17;;;;;;;4.28;1.50;;;19.30;99.90;;;;;;7303461;32;20142;-56
2023/09/21 07:51:21;;;;;;;4.90;1.40;;;19.30;99.90;;;;;;7304221;32;20128;-58
2023/09/21 07:55:22;;;;;;;3.50;1.37;;;19.40;99.90;;;;;;7305684;32;20138;-58
2023/09/21 07:59:24;;;;;;;2.62;1.50;;;19.40;99.90;;;;;;7302719;32;20594;-57
2023/09/21 08:03:26;;;;;;;3.72;1.77;;;19.40;99.90;;;;;;7302353;32;20168;-57
2023/09/21 08:07:28;;;;;;;3.00;1.48;;;19.40;99.90;;;;;;7306754;32;20131;-57
2023/09/21 08:11:30;;;;;;;2.45;1.40;;;19.40;99.90;;;;;;7306936;32;20222;-57
2023/09/21 08:15:32;;;;;;;5.12;1.52;;;19.60;99.90;;;;;;7302123;32;20207;-58
2023/09/21 08:19:35;;;;;;;4.75;1.60;;;19.80;99.90;;;;;;7298443;32;20130;-58
2023/09/21 08:23:37;;;;;;;3.42;1.60;;;20.10;99.90;;;;;;7302101;32;20175;-57
2023/09/21 08:27:39;;;;;;;4.28;1.73;;;20.30;99.90;;;;;;7301847;32;20442;-57
2023/09/21 08:31:41;;;;;;;2.72;1.37;;;20.30;99.90;;;;;;7302704;32;20203;-57
2023/09/21 08:35:46;;;;;;;2.85;1.37;;;20.30;99.90;;;;;;7300725;32;20112;-57
2023/09/21 08:39:47;;;;;;;4.10;1.55;;;20.40;99.90;;;;;;7302751;32;20553;-57
2023/09/21 08:43:54;;;;;;;9.10;1.77;;;20.50;99.90;;;;;;7301336;32;20253;-63
2023/09/21 08:47:56;;;;;;;4.22;1.45;;;20.70;99.90;;;;;;7300459;32;20120;-62
2023/09/21 08:52:02;;;;;;;2.78;1.40;;;21.00;99.90;;;;;;7299629;32;20130;-61
2023/09/21 08:56:04;;;;;;;5.32;1.40;;;21.30;99.90;;;;;;7300423;32;20724;-63
2023/09/21 09:00:08;;;;;;;3.72;1.60;;;21.40;99.90;;;;;;7316489;32;20437;-63
2023/09/21 09:04:10;;;;;;;3.17;1.73;;;21.50;99.90;;;;;;7314314;32;20233;-62
2023/09/21 09:08:12;;;;;;;2.75;1.55;;;21.60;99.90;;;;;;7311900;32;20158;-63
2023/09/21 09:12:21;;;;;;;4.65;1.65;;;21.60;99.90;;;;;;7316259;32;20132;-62
2023/09/21 09:16:30;;;;;;;5.68;1.27;;;21.80;99.90;;;;;;7302985;32;20813;-61
2023/09/21 09:20:32;;;;;;;4.82;1.77;;;22.00;99.90;;;;;;7318491;32;20839;-62
2023/09/21 09:24:34;;;;;;;6.50;1.60;;;22.30;99.90;;;;;;7317424;32;20130;-62
2023/09/21 09:28:36;;;;;;;3.90;1.45;;;22.40;99.90;;;;;;7320464;32;20336;-62
2023/09/21 09:32:41;;;;;;;5.28;1.62;;;22.50;99.90;;;;;;7315019;32;20140;-63
2023/09/21 09:36:50;;;;;;;2.47;1.30;;;22.30;99.90;;;;;;7319533;32;20245;-63
2023/09/21 09:40:52;;;;;;;4.95;1.67;;;22.00;99.90;;;;;;7322878;32;20274;-63
2023/09/21 09:44:58;;;;;;;3.30;1.58;;;22.40;99.90;;;;;;7319014;32;20145;-63
2023/09/21 09:49:01;;;;;;;3.50;1.62;;;22.90;99.90;;;;;;7314012;32;20130;-63
2023/09/21 09:53:10;;;;;;;6.30;1.77;;;23.20;99.90;;;;;;7320223;32;20138;-64
2023/09/21 09:57:13;;;;;;;4.43;1.85;;;23.30;99.90;;;;;;7318694;32;20198;-62
2023/09/21 10:01:17;;;;;;;3.05;1.35;;;22.70;99.90;;;;;;7317914;32;20172;-62
2023/09/21 10:05:22;;;;;;;3.50;1.67;;;22.40;99.90;;;;;;7321646;32;20172;-62
2023/09/21 10:09:27;;;;;;;4.62;1.85;;;22.40;99.90;;;;;;7323480;32;20138;-61
2023/09/21 10:13:30;;;;;;;4.90;1.90;;;22.50;99.90;;;;;;7320783;32;20115;-62
2023/09/21 10:17:31;;;;;;;3.47;1.90;;;22.30;99.90;;;;;;7319407;32;20628;-62
2023/09/21 10:21:38;;;;;;;3.95;1.55;;;22.50;99.90;;;;;;7317389;32;20177;-63
2023/09/21 10:25:45;;;;;;;3.47;1.48;;;22.90;99.90;;;;;;7320155;32;20213;-61
2023/09/21 10:29:53;;;;;;;3.60;1.67;;;22.90;99.90;;;;;;7317781;32;20127;-62
2023/09/21 10:33:58;;;;;;;2.92;1.60;;;22.70;99.90;;;;;;7321348;32;20116;-62
2023/09/21 10:38:13;;;;;;;7.93;1.80;;;22.50;99.90;;;;;;7317571;32;20530;-62
2023/09/21 10:42:15;;;;;;;3.40;1.73;;;22.30;99.90;;;;;;7312462;32;20167;-62
2023/09/21 10:46:21;;;;;;;3.65;1.50;;;22.20;99.90;;;;;;7315542;32;20169;-64
2023/09/21 10:50:24;;;;;;;6.78;1.90;;;22.40;99.90;;;;;;7317863;32;20127;-63
2023/09/21 10:54:26;;;;;;;7.45;2.22;;;22.30;99.90;;;;;;7296975;32;20119;-57
2023/09/21 10:58:32;;;;;;;3.92;1.60;;;22.20;99.90;;;;;;7296291;32;20617;-57
2023/09/21 11:02:38;;;;;;;3.40;1.77;;;22.10;99.90;;;;;;7299126;32;20282;-58
2023/09/21 11:06:40;;;;;;;;;;;21.90;99.90;;;;;;7301490;32;20109;-57
2023/09/21 11:10:42;;;;;;;5.78;1.55;;;21.80;99.90;;;;;;7301689;32;20238;-57
2023/09/21 11:14:45;;;;;;;4.95;1.90;;;21.60;99.90;;;;;;7301518;32;20119;-57
2023/09/21 11:18:48;;;;;;;3.55;1.80;;;21.50;99.90;;;;;;7299904;32;20108;-57
2023/09/21 11:22:50;;;;;;;6.07;1.60;;;21.40;99.90;;;;;;7300216;32;20130;-58
2023/09/21 11:26:54;;;;;;;4.80;1.67;;;21.30;99.90;;;;;;7301316;32;20105;-57
2023/09/21 11:30:56;;;;;;;2.75;1.40;;;21.30;99.90;;;;;;7300359;32;20566;-58
2023/09/21 11:34:58;;;;;;;4.85;1.48;;;21.30;99.90;;;;;;7300197;32;20200;-56
2023/09/21 11:39:01;;;;;;;4.03;1.30;;;21.30;99.90;;;;;;7298954;32;20128;-57
2023/09/21 11:43:02;;;;;;;4.32;1.30;;;21.20;99.90;;;;;;7299777;32;20237;-57
2023/09/21 11:47:11;;;;;;;3.58;1.65;;;21.20;99.90;;;;;;7298633;32;20261;-57
2023/09/21 11:51:14;;;;;;;6.12;1.58;;;21.10;99.90;;;;;;7297748;32;20124;-57
2023/09/21 11:55:16;;;;;;;2.85;1.40;;;21.00;99.90;;;;;;7295982;32;20219;-57
2023/09/21 11:59:19;;;;;;;3.25;1.60;;;21.00;99.90;;;;;;7300350;32;20203;-57
2023/09/21 12:03:23;;;;;;;3.42;1.40;;;20.90;99.90;;;;;;7303448;32;20139;-57
2023/09/21 12:07:27;;;;;;;3.90;1.85;;;20.80;99.90;;;;;;7305230;32;20104;-58
2023/09/21 12:11:29;;;;;;;2.20;1.50;;;20.60;99.90;;;;;;7304114;32;20105;-57
2023/09/21 12:15:33;;;;;;;2.60;1.40;;;20.60;99.90;;;;;;7303545;32;20439;-57
2023/09/21 12:19:36;;;;;;;3.60;1.50;;;20.70;99.90;;;;;;7297393;32;20129;-57
2023/09/21 12:23:38;;;;;;;4.70;1.75;;;20.70;99.90;;;;;;7297567;32;20104;-57
2023/09/21 12:27:42;;;;;;;5.78;1.73;;;20.60;99.90;;;;;;7305878;32;20096;-57
2023/09/21 12:31:46;;;;;;;1.95;1.25;;;20.60;99.90;;;;;;7307343;32;20180;-58
2023/09/21 12:36:04;;;;;;;4.22;1.87;;;20.60;99.90;;;;;;7296931;32;20173;-57
2023/09/21 12:40:15;;;;;;;4.12;1.70;;;20.50;99.90;;;;;;7300501;32;20771;-56
2023/09/21 12:44:18;;;;;;;5.80;1.52;;;20.50;99.90;;;;;;7300239;32;20202;-56
2023/09/21 12:48:20;;;;;;;5.15;1.87;;;20.70;99.90;;;;;;7297664;32;20439;-56
2023/09/21 12:52:22;;;;;;;4.32;1.50;;;20.80;99.90;;;;;;7299215;32;20210;-58
2023/09/21 12:56:24;;;;;;;6.10;1.62;;;20.80;99.90;;;;;;7297249;32;20250;-58
2023/09/21 13:00:29;;;;;;;2.90;1.17;;;20.80;99.90;;;;;;7301972;32;20299;-56
2023/09/21 13:04:31;;;;;;;3.50;1.60;;;20.80;99.90;;;;;;7306892;32;20469;-57
2023/09/21 13:08:33;;;;;;;4.35;1.55;;;20.90;99.90;;;;;;7302955;32;20248;-58
2023/09/21 13:12:35;;;;;;;4.32;1.58;;;20.80;99.90;;;;;;7299051;32;20356;-57
2023/09/21 13:16:38;;;;;;;2.60;1.67;;;20.80;99.90;;;;;;7285104;32;20123;-57
2023/09/21 13:20:42;;;;;;;3.17;1.70;;;20.80;99.90;;;;;;7289889;32;20609;-57
2023/09/21 13:24:44;;;;;;;4.43;1.70;;;20.70;99.90;;;;;;7302965;32;20216;-57
2023/09/21 13:28:46;;;;;;;2.62;1.30;;;20.60;99.90;;;;;;7301729;32;20153;-58
2023/09/21 13:32:49;;;;;;;4.82;1.83;;;20.50;99.90;;;;;;7291259;32;20206;-57
2023/09/21 13:36:51;;;;;;;2.10;1.50;;;20.50;99.90;;;;;;7297556;32;20234;-58
2023/09/21 13:40:53;;;;;;;4.57;1.73;;;20.50;99.90;;;;;;7297492;32;20352;-56
2023/09/21 13:44:54;;;;;;;4.82;1.95;;;20.40;99.90;;;;;;7295882;32;20735;-58
2023/09/21 13:48:56;;;;;;;9.55;1.48;;;20.30;99.90;;;;;;7298806;32;20230;-57
2023/09/21 13:52:58;;;;;;;2.30;1.60;;;20.40;99.90;;;;;;7278661;32;20108;-56
2023/09/21 13:57:00;;;;;;;3.37;1.67;;;20.50;99.90;;;;;;7295553;32;20120;-56
2023/09/21 14:01:02;;;;;;;3.80;1.80;;;20.30;99.90;;;;;;7296873;32;20214;-57
2023/09/21 14:05:04;;;;;;;2.62;1.37;;;20.30;99.90;;;;;;7301958;32;20124;-58
2023/09/21 14:09:07;;;;;;;4.93;1.92;;;20.20;99.90;;;;;;7295536;32;20104;-57
2023/09/21 14:13:12;;;;;;;6.05;2.00;;;20.20;99.90;;;;;;7303151;32;20164;-57
2023/09/21 14:17:18;;;;;;;3.87;1.92;;;20.30;99.90;;;;;;7302205;32;20296;-57
2023/09/21 14:21:21;;;;;;;5.95;2.17;;;20.20;99.90;;;;;;7299176;32;20107;-57
2023/09/21 14:25:23;;;;;;;4.15;2.00;;;20.20;99.90;;;;;;7303032;32;20144;-57
2023/09/21 14:29:26;;;;;;;3.87;1.90;;;20.00;99.90;;;;;;7303437;32;20241;-57
2023/09/21 14:33:28;;;;;;;5.47;2.40;;;20.00;99.90;;;;;;7302997;32;20199;-57
2023/09/21 14:37:30;;;;;;;4.15;2.35;;;19.90;99.90;;;;;;7302244;32;20116;-57
2023/09/21 14:41:32;;;;;;;4.30;2.67;;;19.80;99.90;;;;;;7298633;32;20184;-57
2023/09/21 14:45:34;;;;;;;7.90;2.80;;;19.70;99.90;;;;;;7302592;32;20120;-57
2023/09/21 14:49:36;;;;;;;6.47;1.35;;;19.50;99.90;;;;;;7297215;32;20142;-57
2023/09/21 14:53:37;;;;;;;3.83;1.58;;;18.80;99.90;;;;;;7299131;32;20508;-56
2023/09/21 14:57:39;;;;;;;2.25;1.00;;;18.00;99.90;;;;;;7298887;32;20181;-56
2023/09/21 15:01:42;;;;;;;3.53;1.17;;;17.60;99.90;;;;;;7293908;32;20127;-56
2023/09/21 15:05:46;;;;;;;4.28;1.30;;;17.40;99.90;;;;;;7292808;32;20170;-57
2023/09/21 15:09:48;;;;;;;5.07;1.92;;;17.40;99.90;;;;;;7299711;32;20128;-57
2023/09/21 15:13:52;;;;;;;2.53;1.40;;;17.40;99.90;;;;;;7283203;32;20099;-57
2023/09/21 15:17:53;;;;;;;3.33;1.48;;;17.30;99.90;;;;;;7301152;32;20751;-57
2023/09/21 15:21:56;;;;;;;3.58;1.70;;;17.30;99.90;;;;;;7294787;32;20859;-57
2023/09/21 15:25:57;;;;;;;3.97;1.65;;;17.30;99.90;;;;;;7303397;32;20135;-56
2023/09/21 15:30:19;;;;;;;3.35;1.40;;;17.30;99.90;;;;;;7304932;32;20124;-56
2023/09/21 15:34:24;;;;;;;4.95;1.80;;;17.20;99.90;;;;;;7302018;32;20151;-56
2023/09/21 15:38:26;;;;;;;4.78;1.58;;;17.20;99.90;;;;;;7299669;32;20134;-57
2023/09/21 15:42:29;;;;;;;3.10;1.20;;;17.10;99.90;;;;;;7299697;32;20736;-56
2023/09/21 15:46:31;;;;;;;2.87;1.50;;;17.10;99.90;;;;;;7283210;32;20162;-56
2023/09/21 15:50:34;;;;;;;4.00;1.42;;;17.10;99.90;;;;;;7296962;32;20789;-57
2023/09/21 15:54:37;;;;;;;3.33;2.10;;;17.10;99.90;;;;;;7299355;32;20195;-56
2023/09/21 15:58:40;;;;;;;3.92;1.70;;;17.10;99.90;;;;;;7297823;32;20150;-57
2023/09/21 16:02:42;;;;;;;4.75;1.92;;;17.10;99.90;;;;;;7286802;32;20131;-57
2023/09/21 16:06:44;;;;;;;3.15;1.80;;;17.20;99.90;;;;;;7299516;32;20155;-57
2023/09/21 16:10:46;;;;;;;3.50;1.70;;;17.20;99.90;;;;;;7305709;32;20552;-57
2023/09/21 16:14:49;;;;;;;5.25;1.85;;;17.20;99.90;;;;;;7292319;32;20182;-56
2023/09/21 16:18:51;;;;;;;2.87;1.52;;;17.10;99.90;;;;;;7299796;32;20261;-56
2023/09/21 16:22:53;;;;;;;5.65;2.03;;;17.10;99.90;;;;;;7303010;32;20183;-59
2023/09/21 16:26:58;;;;;;;3.67;2.08;;;17.10;99.90;;;;;;7300510;32;20115;-58
2023/09/21 16:31:00;;;;;;;4.40;2.10;;;17.20;99.90;;;;;;7297070;32;20165;-57
2023/09/21 16:35:02;;;;;;;3.62;2.12;;;17.20;99.90;;;;;;7297071;32;20822;-59
2023/09/21 16:39:05;;;;;;;3.75;2.10;;;17.10;99.90;;;;;;7302414;32;20218;-57
2023/09/21 16:43:06;;;;;;;4.75;2.30;;;17.10;99.90;;;;;;7296694;32;20218;-58
2023/09/21 16:47:08;;;;;;;9.93;2.37;;;17.20;99.90;;;;;;7291198;32;20154;-57
2023/09/21 16:51:10;;;;;;;3.67;2.62;;;17.10;99.90;;;;;;7302282;32;20115;-57
2023/09/21 16:55:13;;;;;;;6.90;2.83;;;17.30;99.90;;;;;;7293986;32;20142;-57
2023/09/21 16:59:15;;;;;;;4.20;2.53;;;17.30;99.90;;;;;;7301919;32;20296;-58
2023/09/21 17:03:17;;;;;;;5.43;2.70;;;17.20;99.90;;;;;;7294471;32;20134;-57
2023/09/21 17:07:20;;;;;;;5.25;2.70;;;17.20;99.90;;;;;;7295883;32;20126;-57
2023/09/21 17:11:22;;;;;;;3.83;2.47;;;17.20;99.90;;;;;;7296339;32;20180;-57
2023/09/21 17:15:23;;;;;;;9.65;2.75;;;17.20;99.90;;;;;;7304601;32;20153;-59
2023/09/21 17:19:25;;;;;;;4.82;2.87;;;17.20;99.90;;;;;;7296274;32;20138;-59
2023/09/21 17:23:27;;;;;;;6.10;2.87;;;17.00;99.90;;;;;;7297198;32;20123;-58
2023/09/21 17:27:29;;;;;;;4.68;2.40;;;17.00;99.90;;;;;;7299726;32;20270;-58
2023/09/21 17:31:31;;;;;;;6.12;3.17;;;16.90;99.90;;;;;;7301770;32;20447;-57
2023/09/21 17:35:33;;;;;;;6.20;3.15;;;16.90;99.90;;;;;;7305702;32;20124;-59
2023/09/21 17:39:37;;;;;;;5.78;3.08;;;16.90;99.90;;;;;;7303385;32;20196;-57
2023/09/21 17:43:39;;;;;;;5.22;2.78;;;16.90;99.90;;;;;;7302830;32;20127;-58
2023/09/21 17:47:41;;;;;;;2.78;1.85;;;16.90;99.90;;;;;;7301589;32;20189;-57
2023/09/21 17:51:43;;;;;;;5.50;2.30;;;16.80;99.90;;;;;;7302123;32;20300;-57
2023/09/21 17:55:45;;;;;;;3.67;1.70;;;16.80;99.90;;;;;;7304325;32;20258;-56
2023/09/21 17:59:47;;;;;;;5.07;1.90;;;16.70;99.90;;;;;;7303376;32;20123;-56
2023/09/21 18:03:49;;;;;;;5.00;1.90;;;16.60;99.90;;;;;;7302380;32;20490;-56
2023/09/21 18:07:51;;;;;;;2.33;1.25;;;16.50;99.90;;;;;;7300445;32;20120;-56
2023/09/21 18:11:53;;;;;;;3.75;1.50;;;16.40;99.90;;;;;;7293290;32;20578;-57
2023/09/21 18:15:55;;;;;;;1.83;1.20;;;16.30;99.90;;;;;;7307408;32;20581;-57
2023/09/21 18:19:57;;;;;;;2.22;1.20;;;16.30;99.90;;;;;;7294176;32;20134;-56
2023/09/21 18:23:59;;;;;;;3.15;0.73;;;16.20;99.90;;;;;;7296981;32;20288;-56
2023/09/21 18:28:02;;;;;;;1.35;0.62;;;16.00;99.90;;;;;;7301806;32;20181;-57
2023/09/21 18:32:04;;;;;;;1.90;0.80;;;15.90;99.90;;;;;;7304674;32;20289;-57
2023/09/21 18:36:07;;;;;;;2.10;0.80;;;15.90;99.90;;;;;;7299147;32;20248;-56
2023/09/21 18:40:09;;;;;;;1.80;0.73;;;15.80;99.90;;;;;;7284767;32;20140;-57
2023/09/21 18:44:12;;;;;;;4.05;0.65;;;15.80;99.90;;;;;;7301444;32;20776;-57
2023/09/21 18:48:14;;;;;;;0.68;0.47;;;15.70;99.90;;;;;;7299884;32;20150;-57
2023/09/21 18:52:16;;;;;;;5.82;4.55;;;15.70;99.90;;;;;;7297428;32;20268;-56
2023/09/21 18:56:19;;;;;;;7.07;5.53;;;15.60;99.90;;;;;;7296877;32;20718;-58
2023/09/21 19:00:21;;;;;;;2.87;0.85;;;15.60;99.90;;;;;;7308498;32;20179;-57
2023/09/21 19:04:23;;;;;;;2.97;0.60;;;15.50;99.90;;;;;;7297361;32;20254;-56
2023/09/21 19:08:25;;;;;;;3.97;0.65;;;15.50;99.90;;;;;;7299357;32;20250;-57
2023/09/21 19:12:28;;;;;;;1.50;0.60;;;15.40;99.90;;;;;;7302217;32;20111;-56
2023/09/21 19:16:30;;;;;;;1.52;0.60;;;15.40;99.90;;;;;;7296867;32;20142;-57
2023/09/21 19:20:32;;;;;;;1.50;0.60;;;15.40;99.90;;;;;;7301033;32;20525;-56
2023/09/21 19:24:35;;;;;;;2.28;0.70;;;15.30;99.90;;;;;;7301025;32;20108;-57
2023/09/21 19:28:36;;;;;;;1.62;0.80;;;15.30;99.90;;;;;;7299334;32;20116;-56
2023/09/21 19:32:38;;;;;;;1.55;0.50;;;15.30;99.90;;;;;;7305924;32;20819;-56
2023/09/21 19:36:40;;;;;;;2.80;1.02;;;15.30;99.90;;;;;;7296104;32;20135;-56
2023/09/21 19:40:42;;;;;;;2.33;0.50;;;15.30;99.90;;;;;;7298266;32;20658;-58
2023/09/21 19:44:44;;;;;;;1.62;0.50;;;15.20;99.90;;;;;;7306114;32;20555;-57
2023/09/21 19:48:46;;;;;;;1.95;0.65;;;15.20;99.90;;;;;;7302725;32;20230;-58
2023/09/21 19:52:48;;;;;;;2.60;0.85;;;15.10;99.90;;;;;;7296924;32;20139;-57
2023/09/21 19:56:51;;;;;;;4.05;0.68;;;15.10;99.90;;;;;;7299037;32;20577;-57
2023/09/21 20:00:52;;;;;;;8.63;1.12;;;15.10;99.90;;;;;;7309551;32;20135;-57
2023/09/21 20:04:54;;;;;;;2.70;1.00;;;15.10;99.90;;;;;;7301441;32;20254;-56
2023/09/21 20:08:56;;;;;;;4.20;1.10;;;15.10;99.90;;;;;;7301535;32;20203;-56
2023/09/21 20:12:58;;;;;;;5.47;1.12;;;15.10;99.90;;;;;;7298972;32;20214;-55
2023/09/21 20:17:00;;;;;;;2.08;1.40;;;15.10;99.90;;;;;;7295683;32;20104;-55
2023/09/21 20:21:01;;;;;;;6.68;2.20;;;15.00;99.90;;;;;;7293962;32;20388;-54
2023/09/21 20:25:04;;;;;;;6.10;3.20;;;15.00;99.90;;;;;;7301824;32;20577;-56
2023/09/21 20:29:07;;;;;;;5.47;2.47;;;15.00;99.90;;;;;;7303395;32;20126;-56
2023/09/21 20:33:09;;;;;;;2.65;1.85;;;14.90;99.90;;;;;;7297474;32;20238;-57
2023/09/21 20:37:11;;;;;;;2.97;1.75;;;14.80;99.90;;;;;;7294972;32;20109;-55
2023/09/21 20:41:12;;;;;;;3.70;1.15;;;14.80;99.90;;;;;;7302655;32;20264;-55
2023/09/21 20:45:14;;;;;;;4.82;1.37;;;14.80;99.90;;;;;;7296253;32;20142;-56
2023/09/21 20:49:17;;;;;;;2.87;1.30;;;14.70;99.90;;;;;;7295500;32;20285;-56
2023/09/21 20:53:18;;;;;;;2.37;1.40;;;14.70;99.90;;;;;;7298715;32;20137;-55
2023/09/21 20:57:20;;;;;;;2.65;1.55;;;14.60;99.90;;;;;;7296129;32;20291;-55
2023/09/21 21:01:22;;;;;;;5.28;1.98;;;14.60;99.90;;;;;;7304012;32;20188;-56
2023/09/21 21:05:24;;;;;;;5.25;1.85;;;14.60;99.90;;;;;;7294381;32;20147;-55